Grandview, Tennessee
Current Conditions -  °F | °C
As of 8:53 AM on Thursday 27 Nov 2014 (Local Time) from KCSV Reporting Station
Haze Haze  
Wind Chill: 24°   Ceiling: 300
Heat Index: 33°   Visibility: 4mi
Dew Point: 30°   Wind: 13mph
Humidity: 89%   Direction: 310°NW
Pressure: 30.21"   Gusts: 21mph
Location:  35.74°N, 84.84°W
Report Text: KCSV 271353Z AUTO 31011G18KT 4SM BR OVC003 01/M01 A3021 RMK AO2 SLP238 T00061011
Loading
Personal Weather Stations






























Interactive Weather Map New forecast layout! Learn more

10-Day Weather Forecast

Advertisements
Track Severe Weather on mobile